Time;durP1;ratioP1;P1;durP2;ratioP2;P2;SDS_P1;SDS_P2;PMS_P1;PMS_P2;Temp;Humidity;BMP_temperature;BMP_pressure;BME280_temperature;BME280_humidity;BME280_pressure;Samples;Min_cycle;Max_cycle;Signal;HPM_P1;HPM_P2
2024/01/07 00:01:09;;;;;;;12.75;8.13;;;1.50;99.90;;;;;;5023103;28;20197;-50
2024/01/07 00:03:35;;;;;;;12.80;8.30;;;1.60;99.90;;;;;;5023118;28;20190;-49
2024/01/07 00:06:01;;;;;;;15.38;8.75;;;1.50;99.90;;;;;;5022664;28;20196;-50
2024/01/07 00:08:27;;;;;;;12.55;7.55;;;1.60;99.90;;;;;;5018106;28;20187;-45
2024/01/07 00:10:53;;;;;;;10.82;6.88;;;1.50;99.90;;;;;;5022890;28;20249;-47
2024/01/07 00:13:19;;;;;;;13.88;8.25;;;1.50;99.90;;;;;;5018794;28;20195;-47
2024/01/07 00:15:45;;;;;;;12.10;7.82;;;1.50;99.90;;;;;;5022365;28;20233;-44
2024/01/07 00:18:11;;;;;;;14.40;7.22;;;1.50;99.90;;;;;;5022832;28;20176;-49
2024/01/07 00:20:36;;;;;;;12.98;7.68;;;1.50;99.90;;;;;;5021958;28;20212;-45
2024/01/07 00:23:02;;;;;;;14.45;8.18;;;1.50;99.90;;;;;;5023357;28;20195;-48
2024/01/07 00:25:28;;;;;;;15.27;8.38;;;1.50;99.90;;;;;;5022400;28;20204;-44
2024/01/07 00:27:55;;;;;;;13.15;8.00;;;1.50;99.90;;;;;;5022652;28;20266;-41
2024/01/07 00:30:21;;;;;;;12.35;7.63;;;1.50;99.90;;;;;;5014046;28;20203;-51
2024/01/07 00:32:47;;;;;;;11.02;7.80;;;1.40;99.90;;;;;;5019079;28;20191;-45
2024/01/07 00:35:13;;;;;;;14.07;7.70;;;1.40;99.90;;;;;;5022649;28;20187;-48
2024/01/07 00:37:39;;;;;;;13.20;8.88;;;1.40;99.90;;;;;;5022051;28;20210;-51
2024/01/07 00:40:05;;;;;;;12.38;7.78;;;1.40;99.90;;;;;;5017657;28;20564;-43
2024/01/07 00:42:32;;;;;;;14.95;7.88;;;1.50;99.90;;;;;;5014469;28;20199;-52
2024/01/07 00:44:58;;;;;;;12.93;8.05;;;1.50;99.90;;;;;;5021938;28;20275;-52
2024/01/07 00:47:24;;;;;;;13.63;7.75;;;1.50;99.90;;;;;;5022053;28;20227;-40
2024/01/07 00:49:50;;;;;;;15.73;8.77;;;1.50;99.90;;;;;;5022233;28;20211;-48
2024/01/07 00:52:16;;;;;;;15.73;8.98;;;1.50;99.90;;;;;;5019417;28;20196;-46
2024/01/07 00:54:42;;;;;;;14.52;9.20;;;1.50;99.90;;;;;;5000256;28;21263;-46
2024/01/07 00:57:08;;;;;;;13.43;8.43;;;1.50;99.90;;;;;;5018308;28;20227;-48
2024/01/07 00:59:33;;;;;;;13.52;7.68;;;1.60;99.90;;;;;;5019695;28;20187;-51
2024/01/07 01:01:59;;;;;;;12.07;7.55;;;1.60;99.90;;;;;;5021850;28;20821;-53
2024/01/07 01:04:25;;;;;;;10.98;7.07;;;1.60;99.90;;;;;;5022311;28;20200;-44
2024/01/07 01:06:51;;;;;;;12.52;7.53;;;1.60;99.90;;;;;;5017640;28;20219;-51
2024/01/07 01:09:17;;;;;;;11.00;7.47;;;1.60;99.90;;;;;;5018825;28;20294;-48
2024/01/07 01:11:44;;;;;;;13.85;8.40;;;1.60;99.90;;;;;;5022022;28;20195;-46
2024/01/07 01:14:10;;;;;;;12.57;8.02;;;1.60;99.90;;;;;;5001458;28;20198;-48
2024/01/07 01:16:36;;;;;;;14.70;8.05;;;1.60;99.90;;;;;;5016137;28;20208;-43
2024/01/07 01:19:02;;;;;;;13.23;8.25;;;1.70;99.90;;;;;;5021581;28;20754;-44
2024/01/07 01:21:28;;;;;;;10.50;6.80;;;1.70;99.90;;;;;;5018550;28;20262;-46
2024/01/07 01:23:54;;;;;;;10.60;7.20;;;1.60;99.90;;;;;;5015938;28;20192;-46
2024/01/07 01:26:20;;;;;;;12.18;7.43;;;1.60;99.90;;;;;;5021854;28;20176;-46
2024/01/07 01:28:46;;;;;;;12.45;7.20;;;1.60;99.90;;;;;;5015528;28;20257;-43
2024/01/07 01:31:15;;;;;;;12.77;7.75;;;1.60;99.90;;;;;;5015628;28;20199;-46
2024/01/07 01:33:41;;;;;;;10.65;6.88;;;1.60;99.90;;;;;;5018189;28;20199;-44
2024/01/07 01:36:07;;;;;;;11.85;6.93;;;1.60;99.90;;;;;;5021039;28;20976;-46
2024/01/07 01:38:33;;;;;;;9.73;6.45;;;1.50;99.90;;;;;;5021195;28;20246;-44
2024/01/07 01:40:59;;;;;;;11.55;7.63;;;1.50;99.90;;;;;;5021754;28;20191;-45
2024/01/07 01:43:26;;;;;;;11.98;6.75;;;1.50;99.90;;;;;;5016504;28;20180;-45
2024/01/07 01:45:55;;;;;;;9.90;6.38;;;1.50;99.90;;;;;;5021796;28;20660;-45
2024/01/07 01:48:22;;;;;;;10.60;6.57;;;1.50;99.90;;;;;;5016038;28;20223;-45
2024/01/07 01:50:48;;;;;;;13.05;7.22;;;1.50;99.90;;;;;;5019226;28;20286;-50
2024/01/07 01:53:15;;;;;;;12.98;7.18;;;1.50;99.90;;;;;;4999720;28;20202;-47
2024/01/07 01:55:43;;;;;;;12.18;7.70;;;1.50;99.90;;;;;;4985985;28;20196;-46
2024/01/07 01:58:13;;;;;;;12.70;7.72;;;1.50;99.90;;;;;;5014118;28;20186;-46
2024/01/07 02:00:40;;;;;;;11.60;6.18;;;1.50;99.90;;;;;;5018050;28;20282;-46
2024/01/07 02:03:06;;;;;;;11.80;7.00;;;1.50;99.90;;;;;;5021412;28;21124;-43
2024/01/07 02:05:32;;;;;;;11.60;6.82;;;1.50;99.90;;;;;;5013555;28;20219;-47
2024/01/07 02:07:59;;;;;;;12.77;7.45;;;1.40;99.90;;;;;;5020068;28;20183;-49
2024/01/07 02:10:25;;;;;;;9.60;6.35;;;1.40;99.90;;;;;;5015653;28;20234;-50
2024/01/07 02:12:51;;;;;;;11.25;6.63;;;1.40;99.90;;;;;;4998125;28;20870;-50
2024/01/07 02:15:17;;;;;;;10.35;6.57;;;1.40;99.90;;;;;;5019316;28;20184;-44
2024/01/07 02:17:43;;;;;;;11.75;6.53;;;1.40;99.90;;;;;;5014351;28;20210;-50
2024/01/07 02:20:09;;;;;;;12.15;6.97;;;1.40;99.90;;;;;;5021583;28;20210;-49
2024/01/07 02:22:35;;;;;;;11.93;6.22;;;1.50;99.90;;;;;;5020652;28;20199;-44
2024/01/07 02:25:01;;;;;;;11.77;5.88;;;1.40;99.90;;;;;;5018355;28;20637;-46
2024/01/07 02:27:27;;;;;;;11.18;6.60;;;1.40;99.90;;;;;;5015565;28;20199;-42
2024/01/07 02:29:53;;;;;;;11.57;6.38;;;1.40;99.90;;;;;;5015826;28;20204;-51
2024/01/07 02:32:18;;;;;;;10.32;5.97;;;1.40;99.90;;;;;;5021223;28;20241;-44
2024/01/07 02:34:44;;;;;;;12.88;6.50;;;1.50;99.90;;;;;;5020622;28;20192;-48
2024/01/07 02:37:11;;;;;;;9.90;5.85;;;1.40;99.90;;;;;;5016715;28;20214;-46
2024/01/07 02:39:37;;;;;;;8.27;5.30;;;1.50;99.90;;;;;;5021165;28;20192;-45
2024/01/07 02:42:03;;;;;;;11.85;5.93;;;1.50;99.90;;;;;;5020846;28;20768;-44
2024/01/07 02:44:29;;;;;;;10.57;6.10;;;1.50;99.90;;;;;;5019396;28;20278;-49
2024/01/07 02:46:55;;;;;;;10.50;6.40;;;1.50;99.90;;;;;;5024404;28;20332;-47
2024/01/07 02:49:21;;;;;;;12.10;6.13;;;1.50;99.90;;;;;;5024318;28;20227;-46
2024/01/07 02:51:49;;;;;;;9.52;5.75;;;1.50;99.90;;;;;;5001770;28;20223;-43
2024/01/07 02:54:16;;;;;;;11.00;6.00;;;1.50;99.90;;;;;;5024213;28;20199;-50
2024/01/07 02:56:42;;;;;;;9.27;5.65;;;1.50;99.90;;;;;;5024083;28;20246;-50
2024/01/07 02:59:07;;;;;;;8.13;5.07;;;1.50;99.90;;;;;;5024211;28;20636;-42
2024/01/07 03:01:39;;;;;;;9.13;5.00;;;1.50;99.90;;;;;;5024336;28;20258;-49
2024/01/07 03:04:13;;;;;;;6.65;4.45;;;1.50;99.90;;;;;;5023913;28;20216;-45
2024/01/07 03:06:39;;;;;;;7.63;4.68;;;1.50;99.90;;;;;;5024082;28;20196;-47
2024/01/07 03:09:05;;;;;;;7.25;4.88;;;1.50;99.90;;;;;;5022756;28;21223;-43
2024/01/07 03:11:31;;;;;;;11.05;4.90;;;1.50;99.90;;;;;;5019806;28;20344;-45
2024/01/07 03:13:57;;;;;;;8.15;4.40;;;1.50;99.90;;;;;;5023120;28;20188;-44
2024/01/07 03:16:25;;;;;;;7.72;4.40;;;1.50;99.90;;;;;;5023813;28;20207;-44
2024/01/07 03:18:51;;;;;;;10.75;5.28;;;1.50;99.90;;;;;;5023787;28;20188;-45
2024/01/07 03:21:22;;;;;;;7.50;4.55;;;1.60;99.90;;;;;;5024094;28;20192;-42
2024/01/07 03:23:49;;;;;;;8.63;5.22;;;1.60;99.90;;;;;;5023479;28;20191;-47
2024/01/07 03:26:16;;;;;;;7.13;5.05;;;1.60;99.90;;;;;;5023852;28;20188;-42
2024/01/07 03:28:42;;;;;;;8.80;4.50;;;1.60;99.90;;;;;;5023718;28;20196;-42
2024/01/07 03:31:13;;;;;;;8.68;5.10;;;1.60;99.90;;;;;;5023905;28;20273;-51
2024/01/07 03:33:40;;;;;;;8.60;4.70;;;1.60;99.90;;;;;;5023345;28;20188;-47
2024/01/07 03:36:11;;;;;;;8.50;4.20;;;1.60;99.90;;;;;;5023357;28;20615;-43
2024/01/07 03:38:38;;;;;;;10.68;4.30;;;1.50;99.90;;;;;;5023613;28;20662;-41
2024/01/07 03:41:04;;;;;;;9.05;4.43;;;1.50;99.90;;;;;;5023370;28;20222;-44
2024/01/07 03:43:30;;;;;;;6.40;4.10;;;1.50;99.90;;;;;;5017704;28;20281;-46
2024/01/07 03:45:56;;;;;;;7.55;4.22;;;1.50;99.90;;;;;;5023484;28;20274;-51
2024/01/07 03:48:22;;;;;;;5.18;3.60;;;1.50;99.90;;;;;;5023254;28;20219;-40
2024/01/07 03:50:48;;;;;;;5.00;3.58;;;1.50;99.90;;;;;;5023394;28;20678;-48
2024/01/07 03:53:14;;;;;;;5.35;3.70;;;1.50;99.90;;;;;;5017722;28;20192;-46
2024/01/07 03:55:40;;;;;;;6.22;3.47;;;1.50;99.90;;;;;;5022086;28;20229;-46
2024/01/07 03:58:06;;;;;;;6.57;3.70;;;1.40;99.90;;;;;;5022996;28;20200;-44
2024/01/07 04:00:33;;;;;;;7.70;3.67;;;1.40;99.90;;;;;;5006816;28;20215;-50
2024/01/07 04:02:59;;;;;;;5.70;3.65;;;1.40;99.90;;;;;;5023043;28;20278;-53
2024/01/07 04:05:25;;;;;;;5.00;3.00;;;1.40;99.90;;;;;;5022158;28;20397;-40
2024/01/07 04:07:51;;;;;;;6.10;3.30;;;1.40;99.90;;;;;;5016481;28;20195;-44
2024/01/07 04:10:17;;;;;;;5.18;3.20;;;1.40;99.90;;;;;;5022763;28;20195;-50
2024/01/07 04:12:43;;;;;;;5.05;3.35;;;1.40;99.90;;;;;;5022697;28;20584;-45
2024/01/07 04:15:13;;;;;;;5.68;3.60;;;1.40;99.90;;;;;;5022834;28;20211;-48
2024/01/07 04:17:39;;;;;;;5.78;3.78;;;1.50;99.90;;;;;;5002199;28;20211;-41
2024/01/07 04:20:08;;;;;;;6.43;3.47;;;1.50;99.90;;;;;;5022767;28;20195;-46
2024/01/07 04:22:34;;;;;;;6.35;3.85;;;1.50;99.90;;;;;;5022449;28;21184;-48
2024/01/07 04:25:00;;;;;;;9.13;3.63;;;1.50;99.90;;;;;;5022314;28;20190;-50
2024/01/07 04:27:26;;;;;;;5.82;3.65;;;1.50;99.90;;;;;;5003129;28;20223;-40
2024/01/07 04:29:51;;;;;;;4.60;3.63;;;1.50;99.90;;;;;;5022655;28;20192;-43
2024/01/07 04:32:17;;;;;;;6.25;3.70;;;1.50;99.90;;;;;;5022544;28;20279;-41
2024/01/07 04:34:43;;;;;;;6.35;4.05;;;1.60;99.90;;;;;;5022525;28;20188;-42
2024/01/07 04:37:09;;;;;;;4.50;3.40;;;1.50;99.90;;;;;;5019078;28;20218;-43
2024/01/07 04:39:35;;;;;;;8.90;3.45;;;1.50;99.90;;;;;;5014883;28;20342;-45
2024/01/07 04:42:01;;;;;;;7.95;3.65;;;1.50;99.90;;;;;;5022023;28;20222;-48
2024/01/07 04:44:27;;;;;;;6.68;3.67;;;1.60;99.90;;;;;;5022084;28;20203;-47
2024/01/07 04:46:53;;;;;;;5.03;3.00;;;1.60;99.90;;;;;;5021819;28;20203;-48
2024/01/07 04:49:19;;;;;;;5.82;3.47;;;1.60;99.90;;;;;;5021834;28;20965;-43
2024/01/07 04:51:45;;;;;;;5.50;2.70;;;1.50;99.90;;;;;;5022252;28;20200;-48
2024/01/07 04:54:11;;;;;;;5.28;3.17;;;1.60;99.90;;;;;;5021836;28;20196;-47
2024/01/07 04:56:36;;;;;;;4.32;2.72;;;1.60;99.90;;;;;;5021725;28;21184;-48
2024/01/07 04:59:02;;;;;;;3.58;2.67;;;1.60;99.90;;;;;;5001239;28;20199;-47
2024/01/07 05:01:28;;;;;;;5.22;2.85;;;1.60;99.90;;;;;;5021798;28;20194;-43
2024/01/07 05:03:54;;;;;;;4.20;2.60;;;1.50;99.90;;;;;;5017990;28;20665;-42
2024/01/07 05:06:20;;;;;;;4.55;2.55;;;1.50;99.90;;;;;;5016516;28;20711;-42
2024/01/07 05:08:45;;;;;;;4.38;3.00;;;1.50;99.90;;;;;;5022032;28;20283;-45
2024/01/07 05:11:11;;;;;;;4.45;2.60;;;1.50;99.90;;;;;;5021918;28;20196;-41
2024/01/07 05:13:37;;;;;;;4.35;2.50;;;1.60;99.90;;;;;;5021476;28;20280;-44
2024/01/07 05:16:03;;;;;;;5.53;2.70;;;1.50;99.90;;;;;;5020592;28;20208;-44
2024/01/07 05:18:29;;;;;;;5.50;2.83;;;1.50;99.90;;;;;;5021873;28;20183;-43
2024/01/07 05:20:55;;;;;;;5.07;2.70;;;1.50;99.90;;;;;;5018387;28;20762;-44
2024/01/07 05:23:21;;;;;;;5.95;2.60;;;1.50;99.90;;;;;;5021755;28;20556;-45
2024/01/07 05:25:47;;;;;;;5.13;2.50;;;1.50;99.90;;;;;;5021505;28;20195;-44
2024/01/07 05:28:14;;;;;;;3.47;2.17;;;1.50;99.90;;;;;;5021435;28;20183;-41
2024/01/07 05:30:41;;;;;;;4.22;2.50;;;1.50;99.90;;;;;;5021491;28;20215;-48
2024/01/07 05:33:07;;;;;;;7.03;2.90;;;1.50;99.90;;;;;;5021832;28;20195;-45
2024/01/07 05:35:33;;;;;;;4.32;2.38;;;1.50;99.90;;;;;;5020630;28;20187;-46
2024/01/07 05:37:58;;;;;;;4.85;2.25;;;1.50;99.90;;;;;;5020677;28;20180;-42
2024/01/07 05:40:24;;;;;;;6.00;2.72;;;1.50;99.90;;;;;;5021493;28;20222;-45
2024/01/07 05:42:50;;;;;;;3.28;2.42;;;1.50;99.90;;;;;;5021648;28;20192;-42
2024/01/07 05:45:16;;;;;;;7.63;2.60;;;1.50;99.90;;;;;;5020425;28;20651;-52
2024/01/07 05:47:42;;;;;;;5.55;2.15;;;1.50;99.90;;;;;;5018295;28;20227;-46
2024/01/07 05:50:08;;;;;;;3.10;2.10;;;1.50;99.90;;;;;;5021578;28;20279;-50
2024/01/07 05:52:34;;;;;;;5.53;2.58;;;1.50;99.90;;;;;;5021544;28;20672;-45
2024/01/07 05:55:00;;;;;;;3.35;2.20;;;1.60;99.90;;;;;;5013517;28;20220;-47
2024/01/07 05:57:26;;;;;;;3.97;2.60;;;1.50;99.90;;;;;;5021040;28;20307;-43
2024/01/07 05:59:52;;;;;;;3.83;2.38;;;1.50;99.90;;;;;;5020554;28;20195;-50
2024/01/07 06:02:18;;;;;;;5.47;2.60;;;1.50;99.90;;;;;;5020198;28;20191;-48
2024/01/07 06:04:44;;;;;;;4.05;2.55;;;1.50;99.90;;;;;;5021247;28;20190;-42
2024/01/07 06:07:10;;;;;;;4.80;2.50;;;1.60;99.90;;;;;;5021107;28;20215;-46
2024/01/07 06:09:35;;;;;;;5.60;2.70;;;1.60;99.90;;;;;;5021389;28;20215;-44
2024/01/07 06:12:02;;;;;;;3.88;2.22;;;1.60;99.90;;;;;;5020914;28;20184;-49
2024/01/07 06:14:27;;;;;;;4.93;2.58;;;1.60;99.90;;;;;;5021550;28;20249;-48
2024/01/07 06:16:53;;;;;;;3.75;1.92;;;1.60;99.90;;;;;;5020922;28;20562;-46
2024/01/07 06:19:19;;;;;;;3.53;2.08;;;1.60;99.90;;;;;;5024127;28;20537;-45
2024/01/07 06:21:45;;;;;;;5.18;2.10;;;1.60;99.90;;;;;;5025145;28;20199;-48
2024/01/07 06:24:11;;;;;;;5.20;2.47;;;1.60;99.90;;;;;;5025135;28;20278;-43
2024/01/07 06:26:37;;;;;;;3.92;2.08;;;1.60;99.90;;;;;;5024924;28;20283;-43
2024/01/07 06:29:03;;;;;;;4.32;2.25;;;1.60;99.90;;;;;;5025161;28;20318;-50
2024/01/07 06:31:29;;;;;;;3.47;1.88;;;1.60;99.90;;;;;;5024831;28;20294;-45
2024/01/07 06:33:58;;;;;;;4.63;2.22;;;1.60;99.90;;;;;;5024685;28;20200;-46
2024/01/07 06:36:26;;;;;;;2.88;1.90;;;1.70;99.90;;;;;;5024165;28;21331;-42
2024/01/07 06:38:52;;;;;;;4.53;2.10;;;1.70;99.90;;;;;;5019803;28;20283;-44
2024/01/07 06:41:18;;;;;;;3.20;1.98;;;1.60;99.90;;;;;;5024263;28;20711;-43
2024/01/07 06:43:44;;;;;;;3.17;2.10;;;1.70;99.90;;;;;;5024976;28;20198;-46
2024/01/07 06:46:10;;;;;;;4.55;2.03;;;1.60;99.90;;;;;;5022412;28;20283;-49
2024/01/07 06:48:36;;;;;;;3.33;2.28;;;1.50;99.90;;;;;;5024052;28;20350;-47
2024/01/07 06:51:02;;;;;;;3.45;1.80;;;1.60;99.90;;;;;;5024938;28;21182;-47
2024/01/07 06:53:28;;;;;;;3.50;2.05;;;1.50;99.90;;;;;;5018099;28;20187;-46
2024/01/07 06:55:54;;;;;;;2.85;2.15;;;1.50;99.90;;;;;;5023734;28;20194;-39
2024/01/07 06:58:20;;;;;;;5.13;2.15;;;1.60;99.90;;;;;;5018158;28;20184;-40
2024/01/07 07:00:46;;;;;;;3.33;2.38;;;1.50;99.90;;;;;;5024108;28;20263;-47
2024/01/07 07:03:12;;;;;;;2.20;1.70;;;1.50;99.90;;;;;;5024163;28;20275;-45
2024/01/07 07:05:38;;;;;;;2.70;1.80;;;1.50;99.90;;;;;;5023538;28;20191;-54
2024/01/07 07:08:05;;;;;;;4.85;2.08;;;1.40;99.90;;;;;;5024457;28;20176;-45
2024/01/07 07:10:31;;;;;;;2.83;2.00;;;1.40;99.90;;;;;;5024042;28;20934;-43
2024/01/07 07:12:57;;;;;;;6.97;2.17;;;1.30;99.90;;;;;;5024401;28;20228;-49
2024/01/07 07:15:26;;;;;;;3.78;2.00;;;1.30;99.90;;;;;;5024191;28;20335;-46
2024/01/07 07:17:52;;;;;;;3.63;2.28;;;1.30;99.90;;;;;;5023511;28;20212;-39
2024/01/07 07:20:18;;;;;;;2.67;2.00;;;1.20;99.90;;;;;;5019776;28;20207;-49
2024/01/07 07:22:44;;;;;;;3.70;2.08;;;1.20;99.90;;;;;;5019848;28;20192;-48
2024/01/07 07:25:09;;;;;;;3.15;1.90;;;1.10;99.90;;;;;;5017909;28;20180;-45
2024/01/07 07:27:35;;;;;;;3.05;1.88;;;1.10;99.90;;;;;;5024435;28;20266;-43
2024/01/07 07:30:01;;;;;;;3.42;2.17;;;1.00;99.90;;;;;;5022537;28;20294;-45
2024/01/07 07:32:27;;;;;;;4.63;2.30;;;1.00;99.90;;;;;;5023640;28;20199;-46
2024/01/07 07:34:53;;;;;;;4.13;2.20;;;0.90;99.90;;;;;;5021889;28;20188;-39
2024/01/07 07:37:19;;;;;;;5.63;2.25;;;0.90;99.90;;;;;;5015708;28;20273;-44
2024/01/07 07:39:45;;;;;;;3.35;2.15;;;0.90;99.90;;;;;;5023415;28;20188;-43
2024/01/07 07:42:11;;;;;;;3.45;2.05;;;0.90;99.90;;;;;;5021107;28;20214;-47
2024/01/07 07:44:39;;;;;;;7.15;2.40;;;0.90;99.90;;;;;;5017267;28;20191;-40
2024/01/07 07:47:05;;;;;;;5.05;2.13;;;0.80;99.90;;;;;;5022860;28;20188;-47
2024/01/07 07:49:31;;;;;;;3.63;2.08;;;0.80;99.90;;;;;;5018166;28;20936;-48
2024/01/07 07:51:57;;;;;;;2.75;2.15;;;0.80;99.90;;;;;;5022870;28;20239;-45
2024/01/07 07:54:23;;;;;;;5.13;2.28;;;0.90;99.90;;;;;;5022995;28;20211;-47
2024/01/07 07:56:48;;;;;;;6.00;2.10;;;0.90;99.90;;;;;;5023439;28;20247;-47
2024/01/07 07:59:14;;;;;;;3.75;2.33;;;0.90;99.90;;;;;;5023117;28;20616;-48
2024/01/07 08:01:40;;;;;;;3.83;2.20;;;1.00;99.90;;;;;;5023387;28;20180;-42
2024/01/07 08:04:07;;;;;;;2.92;2.30;;;1.10;99.90;;;;;;5022826;28;20869;-42
2024/01/07 08:06:33;;;;;;;2.72;2.00;;;1.10;99.90;;;;;;5022869;28;20222;-47
2024/01/07 08:08:59;;;;;;;3.28;2.13;;;1.10;99.90;;;;;;5019154;28;20200;-40
2024/01/07 08:11:25;;;;;;;6.18;2.63;;;1.20;99.90;;;;;;5023166;28;20184;-47
2024/01/07 08:13:51;;;;;;;3.33;1.83;;;1.20;99.90;;;;;;5015793;28;20200;-45
2024/01/07 08:16:18;;;;;;;2.95;2.10;;;1.30;99.90;;;;;;5015134;28;20274;-44
2024/01/07 08:18:46;;;;;;;4.13;2.22;;;1.30;99.90;;;;;;5022140;28;20571;-44
2024/01/07 08:21:12;;;;;;;3.55;2.00;;;1.30;99.90;;;;;;5021420;28;20625;-44
2024/01/07 08:23:37;;;;;;;4.30;2.08;;;1.40;99.90;;;;;;4997281;28;20292;-43
2024/01/07 08:26:03;;;;;;;3.42;2.10;;;1.40;99.90;;;;;;5021294;28;20188;-43
2024/01/07 08:28:29;;;;;;;4.55;2.00;;;1.50;99.90;;;;;;5022267;28;20313;-42
2024/01/07 08:30:56;;;;;;;3.22;1.80;;;1.50;99.90;;;;;;5021829;28;20330;-46
2024/01/07 08:33:21;;;;;;;3.97;2.00;;;1.50;99.90;;;;;;5017985;28;20614;-44
2024/01/07 08:35:47;;;;;;;2.65;1.90;;;1.50;99.90;;;;;;5021736;28;20191;-47
2024/01/07 08:38:14;;;;;;;2.85;2.08;;;1.50;99.90;;;;;;5016986;28;20183;-43
2024/01/07 08:40:40;;;;;;;4.28;2.03;;;1.60;99.90;;;;;;5017772;28;20195;-49
2024/01/07 08:43:06;;;;;;;3.47;2.15;;;1.60;99.90;;;;;;5022106;28;20218;-46
2024/01/07 08:45:32;;;;;;;2.80;1.88;;;1.60;99.90;;;;;;5021734;28;20249;-47
2024/01/07 08:47:57;;;;;;;2.72;1.70;;;1.70;99.90;;;;;;5021472;28;20706;-44
2024/01/07 08:50:23;;;;;;;4.05;1.85;;;1.70;99.90;;;;;;4966458;28;20188;-47
2024/01/07 08:52:49;;;;;;;4.97;2.20;;;1.70;99.90;;;;;;5020673;28;20203;-44
2024/01/07 08:55:15;;;;;;;3.17;2.03;;;1.70;99.90;;;;;;5020360;28;20314;-42
2024/01/07 08:57:41;;;;;;;4.03;2.00;;;1.80;99.90;;;;;;5019067;28;20299;-47
2024/01/07 09:00:07;;;;;;;3.28;1.92;;;1.80;99.90;;;;;;5021108;28;20192;-49
2024/01/07 09:02:33;;;;;;;8.27;2.10;;;1.80;99.90;;;;;;5019055;28;20540;-43
2024/01/07 09:04:59;;;;;;;3.90;2.05;;;1.80;99.90;;;;;;5009458;28;20204;-46
2024/01/07 09:07:25;;;;;;;3.60;1.95;;;1.90;99.90;;;;;;5021644;28;20202;-45
2024/01/07 09:09:51;;;;;;;3.30;1.88;;;1.90;99.90;;;;;;5021225;28;20291;-48
2024/01/07 09:12:17;;;;;;;2.95;1.85;;;2.00;99.90;;;;;;5021654;28;20188;-45
2024/01/07 09:14:43;;;;;;;4.53;2.17;;;2.00;99.90;;;;;;5021487;28;20549;-43
2024/01/07 09:17:09;;;;;;;3.58;1.92;;;2.00;99.90;;;;;;5021634;28;20205;-45
2024/01/07 09:19:35;;;;;;;4.60;2.30;;;2.10;99.90;;;;;;5021369;28;20188;-46
2024/01/07 09:22:00;;;;;;;5.35;2.40;;;2.10;99.90;;;;;;5016261;28;20195;-41
2024/01/07 09:24:26;;;;;;;6.57;2.22;;;2.10;99.90;;;;;;5020832;28;20262;-39
2024/01/07 09:26:52;;;;;;;2.75;2.00;;;2.10;99.90;;;;;;5015563;28;20206;-46
2024/01/07 09:29:18;;;;;;;3.92;2.05;;;2.20;99.90;;;;;;5020969;28;20258;-44
2024/01/07 09:31:44;;;;;;;3.50;2.03;;;2.20;99.90;;;;;;5015543;28;21309;-52
2024/01/07 09:34:10;;;;;;;4.47;2.25;;;2.20;99.90;;;;;;5020865;28;20198;-44
2024/01/07 09:36:36;;;;;;;4.68;2.40;;;2.20;99.90;;;;;;5020974;28;20691;-47
2024/01/07 09:39:04;;;;;;;7.97;2.55;;;2.30;99.90;;;;;;5020935;28;20191;-47
2024/01/07 09:41:30;;;;;;;5.55;2.50;;;2.30;99.90;;;;;;5021293;28;20226;-44
2024/01/07 09:43:58;;;;;;;5.40;2.47;;;2.30;99.90;;;;;;5020942;28;20299;-51
2024/01/07 09:46:25;;;;;;;3.85;2.40;;;2.30;99.90;;;;;;5018403;28;20829;-49
2024/01/07 09:48:51;;;;;;;7.75;2.40;;;2.30;99.90;;;;;;5021026;28;20243;-40
2024/01/07 09:51:22;;;;;;;4.22;2.17;;;2.40;99.90;;;;;;5015607;28;20192;-41
2024/01/07 09:53:48;;;;;;;3.45;2.63;;;2.40;99.90;;;;;;5018960;28;20270;-42
2024/01/07 09:56:22;;;;;;;5.82;2.35;;;2.40;99.90;;;;;;5020155;28;20346;-42
2024/01/07 09:58:49;;;;;;;9.00;2.38;;;2.40;99.90;;;;;;5019127;28;20326;-40
2024/01/07 10:01:18;;;;;;;2.70;2.17;;;2.40;99.90;;;;;;5018087;28;20211;-41
2024/01/07 10:03:44;;;;;;;5.13;2.30;;;2.40;99.90;;;;;;5019207;28;20184;-47
2024/01/07 10:06:11;;;;;;;3.88;2.20;;;2.50;99.90;;;;;;5020525;28;20241;-42
2024/01/07 10:08:38;;;;;;;3.50;2.58;;;2.50;99.90;;;;;;5021103;28;20211;-46
2024/01/07 10:11:04;;;;;;;3.60;2.20;;;2.50;99.90;;;;;;5021138;28;20563;-45
2024/01/07 10:13:32;;;;;;;3.38;2.47;;;2.60;99.90;;;;;;5011807;28;20664;-45
2024/01/07 10:15:58;;;;;;;2.45;2.00;;;2.70;99.90;;;;;;5020151;28;20711;-43
2024/01/07 10:18:25;;;;;;;4.65;2.47;;;2.60;99.90;;;;;;4999500;28;20196;-44
2024/01/07 10:20:52;;;;;;;4.72;2.42;;;2.70;99.90;;;;;;5019625;28;20274;-44
2024/01/07 10:23:21;;;;;;;4.53;2.45;;;2.70;99.90;;;;;;5013392;28;20187;-43
2024/01/07 10:25:47;;;;;;;3.60;2.10;;;2.70;99.90;;;;;;5014031;28;20198;-45
2024/01/07 10:28:14;;;;;;;4.45;2.28;;;2.60;99.90;;;;;;5019208;28;20199;-49
2024/01/07 10:30:40;;;;;;;5.78;2.63;;;2.60;99.90;;;;;;5015433;28;20220;-44
2024/01/07 10:33:08;;;;;;;6.05;2.30;;;2.60;99.90;;;;;;5020625;28;20797;-44
2024/01/07 10:35:36;;;;;;;3.55;2.40;;;2.50;99.90;;;;;;5016316;28;20176;-53
2024/01/07 10:38:02;;;;;;;3.33;2.30;;;2.40;99.90;;;;;;5020808;28;21065;-48
2024/01/07 10:40:30;;;;;;;5.78;2.75;;;2.30;99.90;;;;;;5019458;28;20179;-41
2024/01/07 10:42:56;;;;;;;2.47;2.15;;;2.30;99.90;;;;;;5020940;28;20274;-42
2024/01/07 10:45:22;;;;;;;11.43;2.63;;;2.30;99.90;;;;;;5015748;28;20190;-43
2024/01/07 10:47:50;;;;;;;5.43;2.60;;;2.30;99.90;;;;;;5020214;28;20222;-46
2024/01/07 10:50:17;;;;;;;7.47;2.55;;;2.30;99.90;;;;;;5016195;28;20195;-52
2024/01/07 10:52:48;;;;;;;3.10;2.53;;;2.30;99.90;;;;;;5020566;28;20195;-44
2024/01/07 10:55:17;;;;;;;4.57;2.95;;;2.40;99.90;;;;;;5014592;28;20219;-43
2024/01/07 10:57:47;;;;;;;4.00;2.80;;;2.40;99.90;;;;;;5019471;28;20278;-44
2024/01/07 11:00:20;;;;;;;4.30;2.58;;;2.50;99.90;;;;;;5020335;28;20230;-44
2024/01/07 11:03:14;;;;;;;4.18;2.80;;;2.60;99.90;;;;;;5019515;28;20204;-42
2024/01/07 11:05:56;;;;;;;6.05;3.28;;;2.70;99.90;;;;;;5023207;28;20180;-45
2024/01/07 11:08:33;;;;;;;5.18;3.30;;;2.80;99.90;;;;;;5023677;28;20271;-41
2024/01/07 11:11:06;;;;;;;5.20;3.17;;;2.90;99.90;;;;;;5023709;28;20207;-46
2024/01/07 11:13:39;;;;;;;6.70;3.00;;;2.90;99.90;;;;;;5023247;28;20184;-44
2024/01/07 11:16:09;;;;;;;6.53;3.25;;;2.90;99.90;;;;;;5023408;28;20230;-47
2024/01/07 11:18:39;;;;;;;10.70;3.10;;;2.90;99.90;;;;;;5023043;28;20198;-42
2024/01/07 11:21:06;;;;;;;6.88;3.20;;;2.80;99.90;;;;;;5023534;28;20290;-49
2024/01/07 11:23:34;;;;;;;7.22;3.30;;;2.80;99.90;;;;;;5023688;28;21082;-47
2024/01/07 11:26:00;;;;;;;6.07;3.83;;;2.70;99.90;;;;;;5023204;28;20190;-43
2024/01/07 11:28:46;;;;;;;5.65;3.50;;;2.60;99.90;;;;;;5023028;28;20196;-44
2024/01/07 11:31:13;;;;;;;10.32;3.90;;;2.60;99.90;;;;;;5023274;28;20184;-42
2024/01/07 11:33:42;;;;;;;5.43;3.40;;;2.50;99.90;;;;;;5023456;28;20286;-39
2024/01/07 11:36:10;;;;;;;8.05;3.90;;;2.50;99.90;;;;;;5007185;28;20242;-47
2024/01/07 11:38:39;;;;;;;6.00;4.00;;;2.50;99.90;;;;;;5022952;28;20211;-47
2024/01/07 11:41:06;;;;;;;10.95;3.60;;;2.50;99.90;;;;;;5023250;28;20944;-47
2024/01/07 11:43:34;;;;;;;6.32;3.67;;;2.50;99.90;;;;;;5023108;28;20273;-43
2024/01/07 11:46:00;;;;;;;6.80;4.68;;;2.50;99.90;;;;;;5023073;28;20187;-46
2024/01/07 11:48:27;;;;;;;6.28;4.13;;;2.50;99.90;;;;;;5016645;28;20232;-45
2024/01/07 11:50:53;;;;;;;6.82;3.90;;;2.50;99.90;;;;;;5020620;28;20541;-42
2024/01/07 11:53:19;;;;;;;8.60;4.18;;;2.50;99.90;;;;;;5022663;28;20184;-41
2024/01/07 11:55:46;;;;;;;7.80;4.55;;;2.50;99.90;;;;;;5022654;28;20619;-45
2024/01/07 11:58:12;;;;;;;8.02;4.07;;;2.50;99.90;;;;;;5022595;28;20224;-47
2024/01/07 12:00:38;;;;;;;6.28;4.07;;;2.50;99.90;;;;;;5022810;28;20192;-46
2024/01/07 12:03:04;;;;;;;8.02;4.32;;;2.40;99.90;;;;;;5022814;28;20322;-44
2024/01/07 12:05:30;;;;;;;11.05;4.45;;;2.40;99.90;;;;;;5015458;28;20740;-50
2024/01/07 12:07:57;;;;;;;7.45;5.45;;;2.40;99.90;;;;;;5021064;28;20207;-48
2024/01/07 12:10:23;;;;;;;8.00;3.95;;;2.40;99.90;;;;;;5022583;28;20180;-46
2024/01/07 12:12:53;;;;;;;6.68;3.55;;;2.40;99.90;;;;;;5022738;28;20266;-49
2024/01/07 12:15:21;;;;;;;7.75;4.15;;;2.40;99.90;;;;;;5021399;28;20256;-48
2024/01/07 12:17:58;;;;;;;7.50;3.85;;;2.40;99.90;;;;;;5001329;28;20550;-44
2024/01/07 12:20:25;;;;;;;10.73;4.68;;;2.40;99.90;;;;;;5022508;28;20216;-41
2024/01/07 12:22:51;;;;;;;7.28;4.05;;;2.30;99.90;;;;;;5001056;28;20250;-41
2024/01/07 12:25:24;;;;;;;7.10;4.38;;;2.30;99.90;;;;;;5019386;28;20202;-45
2024/01/07 12:27:52;;;;;;;8.88;4.35;;;2.30;99.90;;;;;;5022352;28;20636;-48
2024/01/07 12:30:23;;;;;;;9.35;4.50;;;2.30;99.90;;;;;;4988641;28;20633;-49
2024/01/07 12:32:52;;;;;;;8.55;4.18;;;2.30;99.90;;;;;;5021052;28;20199;-49
2024/01/07 12:35:18;;;;;;;13.25;4.40;;;2.30;99.90;;;;;;5021696;28;20195;-45
2024/01/07 12:37:44;;;;;;;9.82;4.65;;;2.30;99.90;;;;;;5020490;28;20239;-52
2024/01/07 12:40:11;;;;;;;10.13;4.97;;;2.30;99.90;;;;;;5016542;28;20273;-44
2024/01/07 12:42:44;;;;;;;9.15;4.78;;;2.30;99.90;;;;;;4973509;28;20199;-53
2024/01/07 12:45:14;;;;;;;11.25;5.03;;;2.30;99.90;;;;;;5021375;28;20626;-43
2024/01/07 12:47:43;;;;;;;9.82;4.68;;;2.40;99.90;;;;;;5001218;28;20223;-50
2024/01/07 12:50:10;;;;;;;8.60;4.50;;;2.50;99.90;;;;;;4981515;28;20206;-40
2024/01/07 12:52:40;;;;;;;6.97;4.68;;;2.60;99.90;;;;;;5000718;28;20220;-44